Time;durP1;ratioP1;P1;durP2;ratioP2;P2;SDS_P1;SDS_P2;PMS_P1;PMS_P2;Temp;Humidity;BMP_temperature;BMP_pressure;BME280_temperature;BME280_humidity;BME280_pressure;Samples;Min_cycle;Max_cycle;Signal;HPM_P1;HPM_P2
2023/11/21 00:01:11;;;;;;;4.03;1.57;;;;;;;8.07;100.00;100346.66;5056938;28;20480;-72
2023/11/21 00:03:38;;;;;;;4.23;1.80;;;;;;;8.02;100.00;100346.72;5056821;28;20472;-72
2023/11/21 00:06:09;;;;;;;2.20;0.70;;;;;;;8.01;100.00;100345.94;5056671;28;20950;-73
2023/11/21 00:08:38;;;;;;;4.13;1.20;;;;;;;8.00;100.00;100354.28;5056971;28;20458;-73
2023/11/21 00:11:06;;;;;;;2.50;0.90;;;;;;;7.90;100.00;100351.72;5056764;28;20430;-73
2023/11/21 00:13:33;;;;;;;3.23;1.07;;;;;;;7.87;100.00;100358.50;5056571;28;20493;-73
2023/11/21 00:15:59;;;;;;;2.97;1.40;;;;;;;7.83;100.00;100354.75;5056740;28;20991;-73
2023/11/21 00:18:26;;;;;;;2.77;0.83;;;;;;;7.78;100.00;100360.22;5056244;28;20442;-73
2023/11/21 00:20:53;;;;;;;3.47;1.40;;;;;;;7.80;100.00;100366.94;5056981;28;20446;-73
2023/11/21 00:23:19;;;;;;;4.97;1.40;;;;;;;7.78;100.00;100368.31;5056030;28;20506;-73
2023/11/21 00:25:47;;;;;;;2.53;0.93;;;;;;;7.72;100.00;100372.97;5056794;28;20438;-73
2023/11/21 00:28:15;;;;;;;2.37;1.00;;;;;;;7.72;100.00;100375.66;5056431;28;20473;-73
2023/11/21 00:30:41;;;;;;;2.30;0.60;;;;;;;7.72;100.00;100374.84;5055145;28;20446;-73
2023/11/21 00:33:08;;;;;;;2.30;0.70;;;;;;;7.77;100.00;100381.00;5056040;28;20454;-73
2023/11/21 00:35:35;;;;;;;2.70;1.13;;;;;;;7.78;100.00;100377.19;5056230;28;20517;-73
2023/11/21 00:38:03;;;;;;;2.27;0.90;;;;;;;7.78;100.00;100379.09;5056036;28;20442;-73
2023/11/21 00:40:30;;;;;;;3.10;1.90;;;;;;;7.80;100.00;100383.13;5056100;28;20477;-73
2023/11/21 00:42:59;;;;;;;3.43;1.30;;;;;;;7.82;100.00;100390.91;5055828;28;20946;-73
2023/11/21 00:45:25;;;;;;;2.47;0.87;;;;;;;7.83;100.00;100393.34;5055955;28;20446;-73
2023/11/21 00:47:52;;;;;;;3.10;1.37;;;;;;;7.70;100.00;100388.63;5056013;28;20811;-73
2023/11/21 00:50:19;;;;;;;2.93;1.30;;;;;;;7.63;100.00;100388.16;5055970;28;20517;-73
2023/11/21 00:52:46;;;;;;;5.00;1.20;;;;;;;7.62;100.00;100385.75;5055825;28;20521;-73
2023/11/21 00:55:12;;;;;;;3.03;1.20;;;;;;;7.63;100.00;100392.75;5055899;28;20457;-73
2023/11/21 00:57:39;;;;;;;2.00;0.60;;;;;;;7.56;100.00;100393.88;5055880;28;20859;-72
2023/11/21 01:00:13;;;;;;;5.10;1.20;;;;;;;7.52;100.00;100394.72;5055597;28;20478;-72
2023/11/21 01:02:39;;;;;;;3.20;1.23;;;;;;;7.51;100.00;100406.59;5055854;28;20423;-72
2023/11/21 01:05:07;;;;;;;2.17;0.63;;;;;;;7.52;100.00;100405.50;5055343;28;20477;-72
2023/11/21 01:07:34;;;;;;;2.60;1.20;;;;;;;7.51;100.00;100415.50;5069715;22;20498;-70
2023/11/21 01:10:01;;;;;;;3.60;1.20;;;;;;;7.52;100.00;100410.91;5056766;28;20438;-70
2023/11/21 01:12:27;;;;;;;7.00;1.10;;;;;;;7.50;100.00;100419.28;5055741;28;20503;-71
2023/11/21 01:14:54;;;;;;;2.83;1.13;;;;;;;7.41;100.00;100420.19;5055673;28;20517;-71
2023/11/21 01:17:23;;;;;;;2.03;0.60;;;;;;;7.39;100.00;100419.66;5055628;28;20533;-71
2023/11/21 01:19:50;;;;;;;3.73;1.43;;;;;;;7.37;100.00;100425.34;5055514;28;20489;-71
2023/11/21 01:22:17;;;;;;;3.60;1.10;;;;;;;7.33;100.00;100427.78;5055448;28;20470;-71
2023/11/21 01:24:44;;;;;;;2.80;1.10;;;;;;;7.31;100.00;100429.97;5055358;28;20462;-71
2023/11/21 01:27:10;;;;;;;2.93;1.07;;;;;;;7.31;100.00;100429.97;5055423;28;20472;-71
2023/11/21 01:29:37;;;;;;;3.87;1.23;;;;;;;7.28;100.00;100427.84;5055013;28;20529;-71
2023/11/21 01:32:04;;;;;;;2.40;0.80;;;;;;;7.24;100.00;100439.47;5055561;28;20529;-71
2023/11/21 01:34:32;;;;;;;3.43;1.33;;;;;;;7.26;100.00;100440.78;5055312;28;20454;-71
2023/11/21 01:36:59;;;;;;;2.23;0.80;;;;;;;7.24;100.00;100445.66;5055453;28;20466;-72
2023/11/21 01:39:26;;;;;;;3.37;1.23;;;;;;;7.23;100.00;100440.56;5055245;28;20492;-72
2023/11/21 01:41:53;;;;;;;2.93;1.13;;;;;;;7.21;100.00;100440.00;5055488;28;20447;-72
2023/11/21 01:44:20;;;;;;;3.80;1.37;;;;;;;7.24;100.00;100442.16;5055104;28;20512;-71
2023/11/21 01:46:47;;;;;;;2.93;1.27;;;;;;;7.25;100.00;100441.84;5055092;28;20470;-71
2023/11/21 01:49:14;;;;;;;4.63;1.40;;;;;;;7.24;100.00;100453.72;5055077;28;20830;-71
2023/11/21 01:51:44;;;;;;;4.80;1.70;;;;;;;7.25;100.00;100459.91;5054520;28;21004;-71
2023/11/21 01:54:12;;;;;;;3.20;1.23;;;;;;;7.17;100.00;100457.81;5054440;28;20962;-72
2023/11/21 01:56:39;;;;;;;4.93;1.60;;;;;;;6.99;100.00;100456.59;5054397;28;20434;-71
2023/11/21 01:59:07;;;;;;;4.93;1.50;;;;;;;6.82;100.00;100465.09;5054697;28;20446;-71
2023/11/21 02:01:33;;;;;;;4.17;1.23;;;;;;;6.83;100.00;100464.00;5054563;28;20879;-71
2023/11/21 02:04:01;;;;;;;5.70;1.47;;;;;;;6.82;100.00;100465.88;5055015;28;20494;-71
2023/11/21 02:06:31;;;;;;;2.60;1.23;;;;;;;6.82;100.00;100465.88;5054570;28;20819;-71
2023/11/21 02:08:59;;;;;;;3.20;1.23;;;;;;;6.81;100.00;100464.25;5054428;28;20458;-71
2023/11/21 02:11:27;;;;;;;3.00;1.00;;;;;;;6.79;100.00;100466.44;5054434;28;20481;-71
2023/11/21 02:13:54;;;;;;;2.70;0.90;;;;;;;6.83;100.00;100467.50;5054546;28;20823;-71
2023/11/21 02:16:21;;;;;;;2.17;0.70;;;;;;;6.86;100.00;100459.91;5054276;28;20446;-71
2023/11/21 02:18:49;;;;;;;3.70;1.27;;;;;;;6.91;100.00;100468.00;5054254;28;20946;-71
2023/11/21 02:21:16;;;;;;;2.90;1.10;;;;;;;6.91;100.00;100470.69;5054218;28;20486;-71
2023/11/21 02:23:46;;;;;;;4.73;2.30;;;;;;;6.89;100.00;100470.94;5054226;28;20469;-71
2023/11/21 02:26:13;;;;;;;2.43;1.03;;;;;;;6.89;100.00;100476.31;5054156;28;20551;-72
2023/11/21 02:28:40;;;;;;;4.03;1.50;;;;;;;6.88;100.00;100471.22;5054263;28;20485;-71
2023/11/21 02:31:07;;;;;;;4.43;1.40;;;;;;;6.90;100.00;100479.81;5054098;28;20810;-71
2023/11/21 02:33:34;;;;;;;6.03;2.07;;;;;;;6.87;100.00;100481.19;5053611;28;20459;-71
2023/11/21 02:36:01;;;;;;;2.60;1.00;;;;;;;6.83;100.00;100480.94;5054320;28;20525;-71
2023/11/21 02:38:27;;;;;;;4.10;1.47;;;;;;;6.78;100.00;100488.25;5054118;28;20438;-71
2023/11/21 02:40:56;;;;;;;3.33;1.30;;;;;;;6.77;100.00;100476.69;5053758;28;20514;-71
2023/11/21 02:43:23;;;;;;;3.00;1.13;;;;;;;6.79;100.00;100477.19;5053464;28;20508;-71
2023/11/21 02:45:50;;;;;;;3.10;1.40;;;;;;;6.79;100.00;100482.59;5054086;28;20446;-71
2023/11/21 02:48:16;;;;;;;3.60;1.00;;;;;;;6.74;100.00;100490.69;5053723;28;20525;-71
2023/11/21 02:50:43;;;;;;;1.87;0.57;;;;;;;6.68;100.00;100485.59;5053394;28;20434;-71
2023/11/21 02:53:10;;;;;;;2.40;1.00;;;;;;;6.70;100.00;100489.63;5053527;28;20881;-68
2023/11/21 02:55:37;;;;;;;2.47;0.80;;;;;;;6.69;100.00;100488.03;5053732;28;20496;-71
2023/11/21 02:58:06;;;;;;;3.30;1.40;;;;;;;6.72;100.00;100486.66;5054016;28;20434;-73
2023/11/21 03:00:32;;;;;;;3.37;0.97;;;;;;;6.76;100.00;100493.91;5053502;28;20536;-72
2023/11/21 03:02:59;;;;;;;2.63;1.17;;;;;;;6.76;100.00;100493.09;5053602;28;20990;-72
2023/11/21 03:05:25;;;;;;;2.90;0.80;;;;;;;6.73;100.00;100497.16;5053569;28;20529;-72
2023/11/21 03:07:52;;;;;;;4.20;1.97;;;;;;;6.69;100.00;100496.09;5053465;28;20942;-72
2023/11/21 03:10:19;;;;;;;3.43;1.23;;;;;;;6.68;100.00;100507.94;5053551;28;20477;-72
2023/11/21 03:12:45;;;;;;;3.67;1.37;;;;;;;6.69;100.00;100506.06;5053505;28;20478;-72
2023/11/21 03:15:14;;;;;;;2.30;0.90;;;;;;;6.70;100.00;100511.16;5053054;28;20997;-73
2023/11/21 03:17:42;;;;;;;3.17;1.23;;;;;;;6.68;100.00;100512.50;5053425;28;20439;-72
2023/11/21 03:20:10;;;;;;;3.20;1.33;;;;;;;6.62;100.00;100519.81;5053576;28;20485;-72
2023/11/21 03:22:37;;;;;;;4.00;1.17;;;;;;;6.52;100.00;100517.19;5053029;28;20457;-72
2023/11/21 03:25:05;;;;;;;2.60;0.87;;;;;;;6.49;100.00;100526.59;5053274;28;20462;-72
2023/11/21 03:27:32;;;;;;;2.50;1.20;;;;;;;6.48;100.00;100534.94;5053444;28;20533;-72
2023/11/21 03:29:59;;;;;;;3.50;1.80;;;;;;;6.53;100.00;100538.41;5053647;28;20511;-73
2023/11/21 03:32:27;;;;;;;3.20;1.47;;;;;;;6.53;100.00;100540.31;5053579;28;20438;-72
2023/11/21 03:34:56;;;;;;;3.30;1.27;;;;;;;6.58;100.00;100533.00;5053632;28;20462;-72
2023/11/21 03:37:23;;;;;;;2.97;1.43;;;;;;;6.62;100.00;100535.16;5053346;28;20437;-72
2023/11/21 03:39:50;;;;;;;2.90;1.10;;;;;;;6.59;100.00;100536.50;5053624;28;20619;-72
2023/11/21 03:42:16;;;;;;;2.17;0.80;;;;;;;6.59;100.00;100549.97;5053400;28;20517;-72
2023/11/21 03:44:43;;;;;;;3.97;1.37;;;;;;;6.59;100.00;100547.25;5053235;28;20541;-73
2023/11/21 03:47:09;;;;;;;4.63;1.47;;;;;;;6.59;100.00;100552.66;5053700;28;20434;-73
2023/11/21 03:49:38;;;;;;;2.37;1.03;;;;;;;6.61;100.00;100558.56;5052882;28;20503;-72
2023/11/21 03:52:07;;;;;;;4.10;1.17;;;;;;;6.64;100.00;100558.03;5053068;28;20438;-73
2023/11/21 03:54:34;;;;;;;2.97;1.23;;;;;;;6.63;100.00;100564.47;5052738;28;20477;-73
2023/11/21 03:57:01;;;;;;;5.23;2.57;;;;;;;6.50;100.00;100573.13;5053462;28;20462;-72
2023/11/21 03:59:27;;;;;;;4.50;2.07;;;;;;;6.45;100.00;100570.47;5053262;28;20442;-72
2023/11/21 04:01:56;;;;;;;3.33;1.43;;;;;;;6.39;100.00;100575.06;5052648;28;20539;-73
2023/11/21 04:04:23;;;;;;;4.67;1.67;;;;;;;6.46;100.00;100575.59;5053507;28;20458;-73
2023/11/21 04:06:52;;;;;;;3.00;1.17;;;;;;;6.52;100.00;100579.06;5056570;28;20446;-73
2023/11/21 04:09:19;;;;;;;4.43;1.00;;;;;;;6.53;100.00;100581.47;5056974;28;20423;-73
2023/11/21 04:11:46;;;;;;;4.57;1.70;;;;;;;6.54;100.00;100582.28;5056568;28;20442;-72
2023/11/21 04:14:13;;;;;;;5.50;1.57;;;;;;;6.51;100.00;100598.97;5056667;28;20557;-72
2023/11/21 04:16:39;;;;;;;2.10;0.80;;;;;;;6.43;100.00;100596.84;5056359;28;20925;-73
2023/11/21 04:19:06;;;;;;;4.10;1.13;;;;;;;6.44;100.00;100606.53;5056281;28;21005;-72
2023/11/21 04:21:33;;;;;;;2.50;0.93;;;;;;;6.39;100.00;100607.34;5056393;28;20569;-72
2023/11/21 04:24:01;;;;;;;7.70;2.27;;;;;;;6.26;100.00;100608.72;5056727;28;20462;-72
2023/11/21 04:26:27;;;;;;;6.00;1.50;;;;;;;6.27;100.00;100604.13;5056139;28;20446;-72
2023/11/21 04:28:54;;;;;;;2.70;1.17;;;;;;;6.35;100.00;100608.16;5056281;28;20529;-73
2023/11/21 04:31:21;;;;;;;4.40;1.90;;;;;;;6.35;100.00;100608.97;5056315;28;20441;-73
2023/11/21 04:33:47;;;;;;;5.77;1.00;;;;;;;6.38;100.00;100607.63;5055924;28;21033;-72
2023/11/21 04:36:14;;;;;;;13.33;2.57;;;;;;;6.34;100.00;100620.00;5056518;28;20511;-74
2023/11/21 04:38:41;;;;;;;5.87;1.63;;;;;;;6.36;100.00;100615.16;5056143;28;20438;-73
2023/11/21 04:41:09;;;;;;;3.90;1.13;;;;;;;6.41;100.00;100620.50;5054454;28;20484;-73
2023/11/21 04:43:36;;;;;;;2.67;0.83;;;;;;;6.39;100.00;100623.47;5056310;28;20856;-73
2023/11/21 04:46:03;;;;;;;3.10;1.30;;;;;;;6.40;100.00;100618.91;5056132;28;20477;-73
2023/11/21 04:48:29;;;;;;;3.17;1.57;;;;;;;6.40;100.00;100625.09;5055909;28;20903;-73
2023/11/21 04:50:56;;;;;;;2.90;1.10;;;;;;;6.43;100.00;100616.47;5056233;28;20488;-72
2023/11/21 04:53:22;;;;;;;4.30;1.27;;;;;;;6.41;100.00;100626.69;5055514;28;20497;-72
2023/11/21 04:55:49;;;;;;;3.80;1.33;;;;;;;6.42;100.00;100628.34;5056201;28;20525;-72
2023/11/21 04:58:17;;;;;;;5.27;1.67;;;;;;;6.41;100.00;100631.28;5056188;28;20438;-72
2023/11/21 05:00:44;;;;;;;4.00;1.40;;;;;;;6.39;100.00;100628.88;5055673;28;20482;-73
2023/11/21 05:03:11;;;;;;;3.67;1.50;;;;;;;6.41;100.00;100639.34;5055337;28;20485;-73
2023/11/21 05:05:38;;;;;;;4.10;1.00;;;;;;;6.37;100.00;100640.97;5055417;28;20446;-73
2023/11/21 05:08:05;;;;;;;2.30;0.80;;;;;;;6.36;100.00;100639.34;5055303;28;20491;-73
2023/11/21 05:10:32;;;;;;;4.30;1.33;;;;;;;6.37;100.00;100647.16;5055305;28;20444;-73
2023/11/21 05:12:58;;;;;;;3.77;1.23;;;;;;;6.37;100.00;100647.16;5055190;28;20920;-73
2023/11/21 05:15:27;;;;;;;7.30;1.70;;;;;;;6.34;100.00;100657.66;5055311;28;20462;-73
2023/11/21 05:17:55;;;;;;;3.90;1.37;;;;;;;6.30;100.00;100655.50;5055813;28;20434;-73
2023/11/21 05:20:21;;;;;;;3.77;1.40;;;;;;;6.25;100.00;100657.41;5055878;28;20512;-73
2023/11/21 05:22:49;;;;;;;3.00;1.20;;;;;;;6.25;100.00;100663.59;5055370;28;20433;-73
2023/11/21 05:25:16;;;;;;;4.03;1.70;;;;;;;6.24;100.00;100670.03;5055158;28;20462;-72
2023/11/21 05:27:43;;;;;;;2.30;0.87;;;;;;;6.28;100.00;100671.09;5055283;28;20461;-72
2023/11/21 05:30:12;;;;;;;2.40;0.97;;;;;;;6.24;100.00;100670.03;5054866;28;20579;-72
2023/11/21 05:32:40;;;;;;;3.43;0.83;;;;;;;6.18;100.00;100678.38;5055141;28;20446;-72
2023/11/21 05:35:09;;;;;;;3.40;1.40;;;;;;;6.16;100.00;100677.84;5054906;28;20520;-72
2023/11/21 05:37:38;;;;;;;3.50;1.23;;;;;;;6.07;100.00;100685.66;5054839;28;20450;-72
2023/11/21 05:40:06;;;;;;;3.37;2.07;;;;;;;6.02;100.00;100688.31;5054299;28;20449;-73
2023/11/21 05:42:33;;;;;;;4.63;1.27;;;;;;;6.06;100.00;100689.38;5054654;28;20521;-73
2023/11/21 05:45:09;;;;;;;2.63;0.87;;;;;;;6.01;100.00;100692.06;5054225;28;20538;-73
2023/11/21 05:47:37;;;;;;;3.63;2.07;;;;;;;5.97;100.00;100697.16;5054401;28;20437;-73
2023/11/21 05:50:09;;;;;;;6.20;1.87;;;;;;;5.99;100.00;100697.72;5054303;28;20815;-73
2023/11/21 05:52:36;;;;;;;2.97;1.07;;;;;;;5.95;100.00;100702.03;5054508;28;20423;-73
2023/11/21 05:55:03;;;;;;;4.20;1.77;;;;;;;5.96;100.00;100700.94;5054447;28;20497;-74
2023/11/21 05:57:30;;;;;;;2.40;0.83;;;;;;;6.05;100.00;100706.59;5054490;28;20447;-73
2023/11/21 05:59:57;;;;;;;3.50;1.93;;;;;;;5.97;100.00;100702.53;5053283;28;20933;-73
2023/11/21 06:02:23;;;;;;;3.17;1.30;;;;;;;5.95;100.00;100709.28;5053356;28;20525;-73
2023/11/21 06:04:50;;;;;;;3.93;1.13;;;;;;;5.93;100.00;100724.84;5054020;28;20538;-74
2023/11/21 06:07:19;;;;;;;5.03;2.30;;;;;;;5.78;100.00;100728.31;5054467;28;20465;-73
2023/11/21 06:09:45;;;;;;;4.33;1.47;;;;;;;5.79;100.00;100722.66;5054543;28;20446;-73
2023/11/21 06:12:12;;;;;;;2.50;0.90;;;;;;;5.81;100.00;100730.47;5054468;28;20479;-73
2023/11/21 06:14:39;;;;;;;2.67;0.80;;;;;;;5.81;100.00;100731.28;5054280;28;20537;-74
2023/11/21 06:17:05;;;;;;;2.60;0.70;;;;;;;5.90;100.00;100728.06;5054512;28;20466;-73
2023/11/21 06:19:32;;;;;;;2.90;1.30;;;;;;;5.95;100.00;100731.59;5053939;28;20438;-73
2023/11/21 06:21:59;;;;;;;2.63;1.03;;;;;;;5.82;100.00;100748.19;5054286;28;20572;-73
2023/11/21 06:24:27;;;;;;;2.10;0.80;;;;;;;5.68;100.00;100742.53;5054369;28;20489;-73
2023/11/21 06:26:54;;;;;;;3.20;1.30;;;;;;;5.71;100.00;100750.06;5053380;28;20446;-73
2023/11/21 06:29:21;;;;;;;4.43;1.43;;;;;;;5.74;100.00;100757.59;5053291;28;20534;-73
2023/11/21 06:31:48;;;;;;;5.43;1.43;;;;;;;5.69;100.00;100757.56;5053354;28;20538;-73
2023/11/21 06:34:14;;;;;;;2.90;1.17;;;;;;;5.74;100.00;100767.53;5052950;28;20544;-69
2023/11/21 06:36:41;;;;;;;2.57;1.00;;;;;;;5.76;100.00;100766.19;5052513;28;20434;-70
2023/11/21 06:39:08;;;;;;;3.00;1.43;;;;;;;5.70;100.00;100774.50;5052499;28;20949;-70
2023/11/21 06:41:38;;;;;;;3.60;1.00;;;;;;;5.67;100.00;100783.09;5053359;28;20532;-70
2023/11/21 06:44:05;;;;;;;2.40;1.07;;;;;;;5.68;100.00;100774.78;5054271;28;20497;-70
2023/11/21 06:46:32;;;;;;;3.30;1.57;;;;;;;5.69;100.00;100781.75;5054090;28;20444;-70
2023/11/21 06:48:59;;;;;;;3.57;1.20;;;;;;;5.66;100.00;100793.03;5054227;28;20496;-70
2023/11/21 06:51:26;;;;;;;2.63;1.50;;;;;;;5.61;100.00;100793.00;5053852;28;20434;-70
2023/11/21 06:53:53;;;;;;;3.30;1.40;;;;;;;5.63;100.00;100798.94;5053574;28;20545;-70
2023/11/21 06:56:20;;;;;;;4.93;1.50;;;;;;;5.59;100.00;100797.84;5054331;28;20537;-70
2023/11/21 06:58:48;;;;;;;2.23;0.80;;;;;;;5.54;100.00;100795.94;5053991;28;20531;-71
2023/11/21 07:01:15;;;;;;;2.93;1.03;;;;;;;5.59;100.00;100803.22;5054035;28;20490;-70
2023/11/21 07:03:42;;;;;;;4.43;1.63;;;;;;;5.53;100.00;100804.25;5054676;28;20497;-71
2023/11/21 07:06:09;;;;;;;2.63;0.80;;;;;;;5.54;100.00;100808.56;5055273;28;20504;-70
2023/11/21 07:08:36;;;;;;;2.33;0.73;;;;;;;5.60;100.00;100804.84;5067375;22;20941;-66
2023/11/21 07:11:03;;;;;;;3.53;1.40;;;;;;;5.60;100.00;100804.84;5053618;28;20441;-68
2023/11/21 07:13:30;;;;;;;2.83;1.60;;;;;;;5.63;100.00;100807.00;5053130;28;20460;-68
2023/11/21 07:15:58;;;;;;;2.60;0.70;;;;;;;5.67;100.00;100799.22;5053066;28;20533;-68
2023/11/21 07:18:25;;;;;;;3.17;0.80;;;;;;;5.67;100.00;100800.03;5053176;28;20842;-69
2023/11/21 07:20:52;;;;;;;3.93;1.30;;;;;;;5.70;100.00;100799.50;5053491;28;20438;-68
2023/11/21 07:23:18;;;;;;;1.90;0.47;;;;;;;5.68;100.00;100804.34;5053261;28;20434;-68
2023/11/21 07:25:45;;;;;;;3.53;1.33;;;;;;;5.70;100.00;100801.38;5053395;28;20479;-67
2023/11/21 07:28:12;;;;;;;2.90;0.97;;;;;;;5.64;100.00;100802.44;5053392;28;20525;-67
2023/11/21 07:30:38;;;;;;;4.90;1.17;;;;;;;5.67;100.00;100807.28;5053023;28;20469;-67
2023/11/21 07:33:09;;;;;;;2.47;0.60;;;;;;;5.70;100.00;100804.88;5053377;28;20526;-67
2023/11/21 07:35:35;;;;;;;3.73;1.93;;;;;;;5.78;100.00;100817.78;5053289;28;20517;-68
2023/11/21 07:38:03;;;;;;;1.80;0.40;;;;;;;5.76;100.00;100825.34;5053062;28;20956;-67
2023/11/21 07:40:30;;;;;;;3.20;0.93;;;;;;;5.68;100.00;100812.41;5057299;28;20525;-68
2023/11/21 07:42:57;;;;;;;2.97;1.53;;;;;;;5.64;100.00;100824.72;5057209;28;20569;-68
2023/11/21 07:45:24;;;;;;;3.23;1.17;;;;;;;5.69;100.00;100827.44;5057082;28;20470;-67
2023/11/21 07:47:50;;;;;;;3.30;1.30;;;;;;;5.66;100.00;100821.78;5057144;28;20857;-68
2023/11/21 07:50:19;;;;;;;2.07;0.53;;;;;;;5.73;100.00;100830.41;5056807;28;20438;-68
2023/11/21 07:52:46;;;;;;;2.73;1.00;;;;;;;5.74;100.00;100834.72;5056758;28;20950;-68
2023/11/21 07:55:13;;;;;;;3.90;1.43;;;;;;;5.76;100.00;100840.66;5057295;28;20900;-68
2023/11/21 07:57:40;;;;;;;2.70;0.93;;;;;;;5.74;100.00;100848.97;5056647;28;20453;-68
2023/11/21 08:00:11;;;;;;;2.00;0.60;;;;;;;5.74;100.00;100846.28;5057287;28;20480;-68
2023/11/21 08:02:39;;;;;;;2.13;0.80;;;;;;;5.73;100.00;100844.66;5039715;28;20477;-68
2023/11/21 08:05:06;;;;;;;2.50;1.07;;;;;;;5.66;100.00;100849.44;5056858;28;20553;-68
2023/11/21 08:07:35;;;;;;;2.30;0.80;;;;;;;5.60;100.00;100855.06;5056683;28;20821;-69
2023/11/21 08:10:03;;;;;;;2.73;1.00;;;;;;;5.57;100.00;100859.09;5056694;28;20446;-69
2023/11/21 08:12:29;;;;;;;2.43;1.30;;;;;;;5.64;100.00;100854.28;5056421;28;20858;-69
2023/11/21 08:14:56;;;;;;;2.43;0.97;;;;;;;5.66;100.00;100854.81;5056264;28;20539;-69
2023/11/21 08:17:23;;;;;;;2.50;0.90;;;;;;;5.67;100.00;100855.66;5056642;28;20448;-69
2023/11/21 08:19:51;;;;;;;5.53;1.37;;;;;;;5.70;100.00;100860.50;5056784;28;20457;-69
2023/11/21 08:22:18;;;;;;;3.03;1.17;;;;;;;5.68;100.00;100859.97;5056476;28;20513;-69
2023/11/21 08:24:46;;;;;;;2.50;0.93;;;;;;;5.72;100.00;100877.19;5056435;28;20980;-69
2023/11/21 08:27:16;;;;;;;4.03;1.27;;;;;;;5.80;100.00;100874.00;5056542;28;20430;-68
2023/11/21 08:29:43;;;;;;;2.00;0.57;;;;;;;5.85;100.00;100878.59;5056516;28;20488;-69
2023/11/21 08:32:09;;;;;;;2.63;0.90;;;;;;;5.92;100.00;100877.28;5056880;28;20438;-68
2023/11/21 08:34:36;;;;;;;4.23;1.17;;;;;;;5.95;100.00;100879.47;5056532;28;20493;-69
2023/11/21 08:37:03;;;;;;;2.63;1.07;;;;;;;5.97;100.00;100881.88;5056420;28;20441;-68
2023/11/21 08:39:30;;;;;;;2.80;0.80;;;;;;;5.95;100.00;100886.72;5056513;28;20474;-68
2023/11/21 08:41:58;;;;;;;2.60;0.80;;;;;;;5.90;100.00;100884.78;5056012;28;20922;-68
2023/11/21 08:44:25;;;;;;;2.50;0.73;;;;;;;5.96;100.00;100904.47;5055987;28;20545;-71
2023/11/21 08:46:51;;;;;;;4.17;1.67;;;;;;;6.00;100.00;100897.50;5056104;28;20515;-68
2023/11/21 08:49:18;;;;;;;1.90;0.67;;;;;;;6.03;100.00;100897.78;5055790;28;20500;-68
2023/11/21 08:51:45;;;;;;;2.10;0.60;;;;;;;6.02;100.00;100904.25;5055467;28;20517;-70
2023/11/21 08:54:12;;;;;;;2.73;0.87;;;;;;;6.06;100.00;100901.81;5056042;28;20545;-66
2023/11/21 08:56:39;;;;;;;2.50;1.17;;;;;;;6.05;100.00;100903.69;5056096;28;20474;-67
2023/11/21 08:59:07;;;;;;;4.10;1.10;;;;;;;6.06;100.00;100909.88;5055785;28;20449;-67
2023/11/21 09:01:34;;;;;;;3.30;0.93;;;;;;;5.96;100.00;100910.66;5055783;28;20489;-67
2023/11/21 09:04:02;;;;;;;2.20;0.60;;;;;;;5.92;100.00;100909.53;5055321;28;21039;-67
2023/11/21 09:06:28;;;;;;;2.50;1.00;;;;;;;5.81;100.00;100918.63;5055736;28;20445;-67
2023/11/21 09:08:55;;;;;;;2.23;0.80;;;;;;;5.83;100.00;100914.56;5055272;28;20449;-67
2023/11/21 09:11:22;;;;;;;2.20;0.67;;;;;;;5.82;100.00;100922.91;5056147;28;20500;-67
2023/11/21 09:13:48;;;;;;;2.80;0.73;;;;;;;5.78;100.00;100932.56;5055458;28;20493;-67
2023/11/21 09:16:16;;;;;;;2.30;0.90;;;;;;;5.78;100.00;100936.06;5055462;28;20525;-67
2023/11/21 09:18:43;;;;;;;2.73;1.07;;;;;;;5.76;100.00;100946.28;5056224;28;20507;-67
2023/11/21 09:21:10;;;;;;;3.17;0.90;;;;;;;5.78;100.00;100949.50;5055219;28;20438;-67
2023/11/21 09:23:37;;;;;;;2.10;0.60;;;;;;;5.84;100.00;100953.03;5055162;28;20512;-67
2023/11/21 09:26:05;;;;;;;3.23;0.97;;;;;;;5.72;100.00;100952.44;5055396;28;20525;-67
2023/11/21 09:28:31;;;;;;;2.10;0.70;;;;;;;5.68;100.00;100957.50;5055595;28;20474;-67
2023/11/21 09:30:58;;;;;;;2.10;0.67;;;;;;;5.67;100.00;100955.91;5055212;28;20533;-67
2023/11/21 09:33:26;;;;;;;2.10;0.80;;;;;;;5.69;100.00;100969.88;5055049;28;20497;-67
2023/11/21 09:35:53;;;;;;;3.00;1.17;;;;;;;5.78;100.00;100964.81;5055140;28;20438;-67
2023/11/21 09:38:20;;;;;;;3.03;1.20;;;;;;;5.75;100.00;100968.81;5055069;28;20529;-67
2023/11/21 09:40:46;;;;;;;2.10;0.50;;;;;;;5.80;100.00;100970.75;5054989;28;20434;-68
2023/11/21 09:43:17;;;;;;;2.30;0.90;;;;;;;5.68;100.00;100972.81;5054751;28;20857;-67
2023/11/21 09:45:48;;;;;;;2.70;0.77;;;;;;;5.63;100.00;100970.09;5055380;28;20427;-67
2023/11/21 09:48:16;;;;;;;2.73;0.67;;;;;;;5.63;100.00;100978.97;5055355;28;20438;-67
2023/11/21 09:50:44;;;;;;;1.80;0.40;;;;;;;5.69;100.00;100986.00;5055273;28;20787;-67
2023/11/21 09:53:15;;;;;;;2.40;0.73;;;;;;;5.70;100.00;100992.97;5054908;28;20508;-67
2023/11/21 09:55:44;;;;;;;2.83;1.10;;;;;;;5.76;100.00;100975.84;5054859;28;20949;-67
2023/11/21 09:58:12;;;;;;;2.77;0.87;;;;;;;5.75;100.00;100973.38;5054679;28;20525;-67
2023/11/21 10:00:41;;;;;;;1.90;0.50;;;;;;;5.82;100.00;100985.53;5054803;28;20538;-68
2023/11/21 10:03:08;;;;;;;1.90;0.50;;;;;;;5.82;100.00;100987.44;5053573;28;20559;-68
2023/11/21 10:05:35;;;;;;;2.00;0.60;;;;;;;5.87;100.00;100994.72;5054604;28;20790;-68
2023/11/21 10:08:06;;;;;;;2.30;0.83;;;;;;;5.87;100.00;101000.91;5054503;28;20535;-67
2023/11/21 10:10:34;;;;;;;2.10;0.50;;;;;;;5.89;100.00;100992.56;5054984;28;20426;-67
2023/11/21 10:13:06;;;;;;;2.57;0.80;;;;;;;5.89;100.00;100993.41;5054108;28;20439;-67
2023/11/21 10:15:35;;;;;;;2.73;1.00;;;;;;;5.95;100.00;100987.00;5054132;28;20800;-67
2023/11/21 10:18:03;;;;;;;2.00;0.60;;;;;;;6.02;100.00;100989.44;5054392;28;20439;-67
2023/11/21 10:20:33;;;;;;;4.00;1.37;;;;;;;5.97;100.00;100997.47;5054240;28;20438;-67
2023/11/21 10:23:01;;;;;;;4.27;1.10;;;;;;;5.95;100.00;100991.56;5054138;28;20531;-67
2023/11/21 10:25:29;;;;;;;2.47;0.93;;;;;;;5.96;100.00;100996.69;5054261;28;20438;-67
2023/11/21 10:28:01;;;;;;;4.67;1.20;;;;;;;6.08;100.00;100993.78;5054507;28;20524;-67
2023/11/21 10:30:32;;;;;;;3.23;0.97;;;;;;;6.09;100.00;101000.78;5054274;28;20484;-67
2023/11/21 10:33:01;;;;;;;2.40;0.60;;;;;;;6.13;100.00;101004.56;5054094;28;20443;-67
2023/11/21 10:35:39;;;;;;;2.40;1.10;;;;;;;6.08;100.00;101009.94;5054010;28;20438;-67
2023/11/21 10:38:08;;;;;;;2.53;0.60;;;;;;;6.02;100.00;101005.56;5054361;28;20602;-67
2023/11/21 10:40:39;;;;;;;2.03;0.50;;;;;;;6.05;100.00;101010.44;5053624;28;20852;-67
2023/11/21 10:43:08;;;;;;;3.17;1.50;;;;;;;6.04;100.00;101006.13;5054479;28;20497;-67
2023/11/21 10:45:37;;;;;;;2.20;0.80;;;;;;;5.95;100.00;101011.19;5053870;28;20541;-67
2023/11/21 10:48:07;;;;;;;1.80;0.50;;;;;;;5.77;100.00;101016.97;5053814;28;20496;-67
2023/11/21 10:50:35;;;;;;;4.17;1.47;;;;;;;5.76;100.00;101021.53;5053983;28;20430;-67
2023/11/21 10:53:03;;;;;;;2.90;1.20;;;;;;;5.72;100.00;101025.81;5053736;28;20474;-67
2023/11/21 10:55:31;;;;;;;2.20;0.77;;;;;;;5.65;100.00;101024.41;5054175;28;20452;-67
2023/11/21 10:58:01;;;;;;;2.10;0.80;;;;;;;5.63;100.00;101024.66;5053734;28;20450;-67
2023/11/21 11:00:29;;;;;;;3.40;1.03;;;;;;;5.63;100.00;101030.03;5053967;28;20804;-67
2023/11/21 11:02:56;;;;;;;2.67;1.50;;;;;;;5.57;100.00;101033.72;5053212;28;20569;-67
2023/11/21 11:05:25;;;;;;;2.37;0.73;;;;;;;5.62;100.00;101032.97;5053855;28;20537;-67
2023/11/21 11:07:59;;;;;;;2.20;0.70;;;;;;;5.68;100.00;101030.06;5053769;28;20458;-68
2023/11/21 11:10:27;;;;;;;2.77;0.97;;;;;;;5.69;100.00;101034.38;5053681;28;20415;-66
2023/11/21 11:12:55;;;;;;;2.90;1.10;;;;;;;5.67;100.00;101036.50;5053060;28;20533;-67
2023/11/21 11:15:23;;;;;;;2.37;0.90;;;;;;;5.63;100.00;101046.16;5053568;28;20462;-68
2023/11/21 11:17:50;;;;;;;4.13;0.93;;;;;;;5.64;100.00;101031.66;5053434;28;20525;-68
2023/11/21 11:20:19;;;;;;;2.17;0.60;;;;;;;5.62;100.00;101049.06;5053673;28;20495;-68
2023/11/21 11:22:57;;;;;;;3.07;1.33;;;;;;;5.56;100.00;101043.66;5053122;28;20577;-68
2023/11/21 11:25:47;;;;;;;2.83;0.90;;;;;;;5.64;100.00;101053.16;5053679;28;20458;-68